Time;durP1;ratioP1;P1;durP2;ratioP2;P2;SDS_P1;SDS_P2;PMS_P1;PMS_P2;Temp;Humidity;BMP_temperature;BMP_pressure;BME280_temperature;BME280_humidity;BME280_pressure;Samples;Min_cycle;Max_cycle;Signal;HPM_P1;HPM_P2
2020/12/17 00:00:48;;;;;;;18.03;11.33;;;10.30;76.70;;;;;;5052073;28;20404;-71
2020/12/17 00:03:14;;;;;;;15.97;11.30;;;10.40;76.00;;;;;;5052159;28;20401;-70
2020/12/17 00:05:39;;;;;;;19.80;12.07;;;10.40;75.50;;;;;;5052322;28;20498;-70
2020/12/17 00:08:05;;;;;;;16.63;11.00;;;10.40;75.50;;;;;;5052848;28;20446;-71
2020/12/17 00:10:30;;;;;;;14.50;11.10;;;10.40;75.20;;;;;;5049175;28;20387;-72
2020/12/17 00:12:56;;;;;;;19.25;11.27;;;10.40;75.90;;;;;;5052177;28;20943;-70
2020/12/17 00:15:21;;;;;;;18.48;10.10;;;10.40;74.80;;;;;;5053501;28;20392;-70
2020/12/17 00:17:50;;;;;;;14.55;10.52;;;10.40;75.30;;;;;;5053029;28;20396;-70
2020/12/17 00:20:19;;;;;;;14.82;10.18;;;10.40;76.10;;;;;;5033613;28;20408;-75
2020/12/17 00:22:45;;;;;;;14.43;10.30;;;10.40;76.70;;;;;;5052781;28;20465;-75
2020/12/17 00:25:12;;;;;;;15.65;10.50;;;10.40;75.90;;;;;;5053353;28;20389;-72
2020/12/17 00:27:39;;;;;;;15.23;9.85;;;10.50;75.80;;;;;;5052068;28;20405;-71
2020/12/17 00:30:07;;;;;;;12.82;8.90;;;10.50;75.00;;;;;;5053344;28;20459;-73
2020/12/17 00:32:32;;;;;;;14.82;9.70;;;10.60;74.00;;;;;;5052498;28;20401;-73
2020/12/17 00:34:58;;;;;;;13.00;10.00;;;10.60;73.80;;;;;;5052670;28;20455;-73
2020/12/17 00:37:31;;;;;;;12.57;10.00;;;10.50;73.80;;;;;;5052264;28;20394;-73
2020/12/17 00:39:57;;;;;;;12.32;9.52;;;10.40;75.00;;;;;;5044969;28;20412;-73
2020/12/17 00:42:23;;;;;;;14.95;9.73;;;10.40;75.50;;;;;;5052378;28;20393;-72
2020/12/17 00:44:48;;;;;;;15.65;9.80;;;10.30;76.30;;;;;;5052493;28;20774;-73
2020/12/17 00:47:15;;;;;;;17.77;10.07;;;10.30;76.90;;;;;;5052976;28;20421;-73
2020/12/17 00:49:40;;;;;;;14.25;10.32;;;10.30;77.00;;;;;;5052274;28;20389;-74
2020/12/17 00:52:06;;;;;;;16.40;10.00;;;10.20;77.20;;;;;;5052784;28;20448;-74
2020/12/17 00:54:31;;;;;;;17.10;10.00;;;10.20;77.20;;;;;;5052528;28;20470;-74
2020/12/17 00:56:57;;;;;;;13.70;9.88;;;10.20;77.50;;;;;;5051986;28;20398;-72
2020/12/17 00:59:22;;;;;;;13.63;10.33;;;10.10;77.90;;;;;;5052614;28;20373;-74
2020/12/17 01:01:48;;;;;;;14.17;9.70;;;10.20;76.80;;;;;;5054750;28;20386;-73
2020/12/17 01:04:14;;;;;;;14.57;10.40;;;10.20;77.40;;;;;;5054673;28;20385;-73
2020/12/17 01:06:40;;;;;;;20.17;10.10;;;10.20;77.20;;;;;;5055062;28;20400;-76
2020/12/17 01:09:05;;;;;;;13.63;10.05;;;10.30;76.70;;;;;;5054037;28;20489;-75
2020/12/17 01:11:32;;;;;;;14.48;9.50;;;10.40;75.00;;;;;;5054972;28;20388;-75
2020/12/17 01:14:04;;;;;;;16.10;9.32;;;10.30;75.10;;;;;;5054914;28;20495;-73
2020/12/17 01:16:30;;;;;;;14.18;9.57;;;10.40;75.20;;;;;;5054568;28;20381;-75
2020/12/17 01:18:56;;;;;;;17.10;10.05;;;10.30;74.40;;;;;;5053712;28;20385;-75
2020/12/17 01:21:22;;;;;;;14.43;10.05;;;10.40;73.30;;;;;;5054089;28;20377;-75
2020/12/17 01:23:47;;;;;;;11.65;9.32;;;10.60;72.80;;;;;;5036254;28;20451;-75
2020/12/17 01:26:13;;;;;;;12.97;9.50;;;10.60;71.60;;;;;;5054364;28;20385;-74
2020/12/17 01:28:40;;;;;;;12.57;9.20;;;10.70;70.80;;;;;;5055897;28;20381;-73
2020/12/17 01:31:08;;;;;;;14.38;10.00;;;10.70;71.40;;;;;;5055258;28;20386;-74
2020/12/17 01:33:33;;;;;;;11.68;8.93;;;10.60;70.70;;;;;;5037245;28;20762;-74
2020/12/17 01:36:04;;;;;;;13.82;9.38;;;10.60;70.90;;;;;;5055451;28;20385;-75
2020/12/17 01:38:30;;;;;;;12.32;9.15;;;10.70;70.80;;;;;;5054636;28;20398;-74
2020/12/17 01:40:56;;;;;;;14.63;9.88;;;10.70;70.20;;;;;;5055160;28;20378;-75
2020/12/17 01:43:21;;;;;;;12.05;9.60;;;10.70;71.80;;;;;;5055527;28;20405;-73
2020/12/17 01:45:47;;;;;;;12.63;9.50;;;10.70;71.50;;;;;;5055346;28;20385;-75
2020/12/17 01:48:15;;;;;;;14.13;9.48;;;10.70;72.40;;;;;;5054239;28;20399;-75
2020/12/17 01:50:41;;;;;;;15.10;9.85;;;10.70;72.70;;;;;;5053856;28;20393;-76
2020/12/17 01:53:06;;;;;;;12.15;8.70;;;10.70;71.10;;;;;;5054281;28;20459;-74
2020/12/17 01:55:32;;;;;;;13.50;9.10;;;10.80;70.60;;;;;;5053854;28;20406;-74
2020/12/17 01:58:03;;;;;;;10.10;8.63;;;10.80;70.40;;;;;;5053970;28;20798;-74
2020/12/17 02:00:34;;;;;;;12.98;8.45;;;10.70;70.70;;;;;;5053968;28;20392;-73
2020/12/17 02:02:59;;;;;;;10.40;8.50;;;10.70;71.40;;;;;;5055153;28;20381;-74
2020/12/17 02:05:25;;;;;;;17.17;7.80;;;10.70;72.40;;;;;;5051385;28;20397;-74
2020/12/17 02:07:51;;;;;;;11.57;8.67;;;10.70;71.20;;;;;;5050512;28;20432;-74
2020/12/17 02:10:17;;;;;;;11.07;8.10;;;10.80;71.50;;;;;;5063418;28;20384;-74
2020/12/17 02:12:49;;;;;;;10.23;7.72;;;10.80;70.00;;;;;;5071173;28;20391;-74
2020/12/17 02:15:17;;;;;;;10.17;7.47;;;10.80;71.00;;;;;;5071132;28;20372;-73
2020/12/17 02:17:42;;;;;;;11.73;7.43;;;10.80;70.50;;;;;;5064714;28;20890;-74
2020/12/17 02:20:09;;;;;;;10.05;7.70;;;10.80;70.70;;;;;;5051100;28;20381;-74
2020/12/17 02:22:35;;;;;;;9.10;7.20;;;10.80;71.90;;;;;;5045331;28;20387;-74
2020/12/17 02:25:04;;;;;;;8.20;7.20;;;10.80;72.00;;;;;;5031146;28;20514;-74
2020/12/17 02:27:29;;;;;;;9.13;7.07;;;10.80;72.20;;;;;;5013122;28;20440;-73
2020/12/17 02:29:55;;;;;;;9.73;7.50;;;10.70;72.50;;;;;;5033779;28;20410;-73
2020/12/17 02:32:21;;;;;;;8.87;7.30;;;10.80;71.50;;;;;;5051246;28;20905;-73
2020/12/17 02:34:46;;;;;;;7.70;6.40;;;10.80;71.60;;;;;;5056181;28;20494;-74
2020/12/17 02:37:14;;;;;;;9.40;6.78;;;10.80;71.80;;;;;;5055712;28;20377;-74
2020/12/17 02:39:39;;;;;;;9.65;6.95;;;10.70;71.70;;;;;;5055854;28;20452;-74
2020/12/17 02:42:05;;;;;;;8.55;7.15;;;10.70;72.20;;;;;;5055781;28;20409;-74
2020/12/17 02:44:31;;;;;;;12.02;7.32;;;10.70;72.60;;;;;;5054708;28;20412;-75
2020/12/17 02:46:56;;;;;;;9.05;6.47;;;10.70;71.40;;;;;;5056696;28;20385;-75
2020/12/17 02:49:22;;;;;;;10.82;7.13;;;10.80;70.40;;;;;;5054354;28;20389;-74
2020/12/17 02:51:47;;;;;;;14.80;6.93;;;10.80;70.80;;;;;;5054534;28;20421;-74
2020/12/17 02:54:13;;;;;;;9.13;6.97;;;10.70;71.00;;;;;;5054353;28;20431;-73
2020/12/17 02:56:38;;;;;;;7.90;6.57;;;10.70;71.70;;;;;;5054136;28;20393;-76
2020/12/17 02:59:04;;;;;;;9.30;7.00;;;10.70;71.30;;;;;;5053748;28;20439;-74
2020/12/17 03:01:29;;;;;;;11.13;6.90;;;10.70;70.70;;;;;;5036771;28;20428;-73
2020/12/17 03:03:55;;;;;;;10.67;7.40;;;10.70;70.90;;;;;;5035791;28;20805;-75
2020/12/17 03:06:20;;;;;;;9.73;6.90;;;10.60;71.20;;;;;;5055032;28;20396;-75
2020/12/17 03:08:47;;;;;;;11.60;7.65;;;10.60;70.90;;;;;;5053372;28;20388;-75
2020/12/17 03:11:12;;;;;;;8.03;6.93;;;10.80;68.70;;;;;;5074794;28;20407;-73
2020/12/17 03:13:38;;;;;;;9.37;7.53;;;10.70;69.70;;;;;;5053591;28;20413;-73
2020/12/17 03:16:03;;;;;;;8.20;7.00;;;10.70;69.90;;;;;;5053559;28;20479;-75
2020/12/17 03:18:29;;;;;;;8.07;7.13;;;10.70;70.70;;;;;;5055395;28;20387;-75
2020/12/17 03:20:54;;;;;;;10.63;7.90;;;10.70;70.10;;;;;;5055456;28;20476;-73
2020/12/17 03:23:21;;;;;;;8.60;7.07;;;10.70;70.20;;;;;;5050125;28;20425;-74
2020/12/17 03:25:46;;;;;;;11.77;7.35;;;10.70;70.20;;;;;;5031755;28;20898;-73
2020/12/17 03:28:12;;;;;;;10.18;7.10;;;10.80;69.10;;;;;;5049932;28;20447;-74
2020/12/17 03:30:37;;;;;;;12.48;8.10;;;10.60;69.80;;;;;;5050318;28;20389;-74
2020/12/17 03:33:03;;;;;;;10.13;7.20;;;10.70;69.60;;;;;;5050058;28;20405;-74
2020/12/17 03:35:29;;;;;;;9.60;7.35;;;10.70;69.90;;;;;;5050150;28;20443;-73
2020/12/17 03:37:58;;;;;;;12.43;7.73;;;10.70;71.00;;;;;;5049904;28;20393;-73
2020/12/17 03:40:24;;;;;;;9.20;7.00;;;10.60;70.60;;;;;;5047357;28;20803;-72
2020/12/17 03:42:50;;;;;;;9.93;6.80;;;10.70;69.90;;;;;;5049226;28;20444;-72
2020/12/17 03:45:16;;;;;;;10.85;7.30;;;10.70;69.00;;;;;;5049901;28;20774;-71
2020/12/17 03:47:41;;;;;;;12.70;7.10;;;10.70;69.60;;;;;;5049004;28;20397;-72
2020/12/17 03:50:07;;;;;;;11.73;7.40;;;10.80;68.30;;;;;;5049705;28;20413;-73
2020/12/17 03:52:32;;;;;;;8.47;6.97;;;10.80;67.80;;;;;;5049788;28;20422;-75
2020/12/17 03:54:58;;;;;;;8.90;6.90;;;10.80;68.40;;;;;;5049163;28;20455;-72
2020/12/17 03:57:23;;;;;;;9.00;6.60;;;10.80;68.30;;;;;;5049510;28;20427;-71
2020/12/17 03:59:49;;;;;;;9.07;6.80;;;10.80;67.50;;;;;;5049978;28;20389;-72
2020/12/17 04:02:15;;;;;;;9.18;7.00;;;10.80;68.00;;;;;;5049653;28;20389;-74
2020/12/17 04:04:40;;;;;;;9.52;6.80;;;10.80;68.20;;;;;;5054112;28;20451;-75
2020/12/17 04:07:06;;;;;;;9.48;6.80;;;10.70;67.50;;;;;;5037917;28;20390;-74
2020/12/17 04:09:31;;;;;;;9.63;6.90;;;10.70;68.20;;;;;;5052070;28;20401;-74
2020/12/17 04:11:57;;;;;;;8.93;6.73;;;10.70;68.40;;;;;;5049595;28;20691;-73
2020/12/17 04:14:22;;;;;;;12.63;7.33;;;10.60;69.40;;;;;;5049605;28;20468;-73
2020/12/17 04:16:48;;;;;;;8.37;6.40;;;10.60;69.70;;;;;;5049439;28;20404;-72
2020/12/17 04:19:14;;;;;;;9.97;7.10;;;10.60;69.50;;;;;;5046384;28;20374;-74
2020/12/17 04:21:39;;;;;;;10.20;7.10;;;10.70;67.70;;;;;;5049693;28;20403;-73
2020/12/17 04:24:05;;;;;;;9.30;7.73;;;10.60;68.50;;;;;;5042879;28;20397;-73
2020/12/17 04:26:30;;;;;;;9.53;7.40;;;10.60;69.20;;;;;;5052947;28;20883;-73
2020/12/17 04:29:01;;;;;;;11.88;6.78;;;10.60;69.00;;;;;;5054525;28;20724;-75
2020/12/17 04:31:27;;;;;;;13.53;7.53;;;10.60;69.20;;;;;;5055774;28;20949;-73
2020/12/17 04:33:53;;;;;;;11.80;7.60;;;10.60;69.10;;;;;;5055068;28;20402;-74
2020/12/17 04:36:18;;;;;;;11.43;7.38;;;10.60;68.90;;;;;;5055982;28;20377;-74
2020/12/17 04:38:44;;;;;;;12.10;7.30;;;10.70;68.60;;;;;;5054828;28;20382;-73
2020/12/17 04:41:10;;;;;;;12.17;7.10;;;10.60;69.10;;;;;;5053394;28;20443;-73
2020/12/17 04:43:36;;;;;;;8.65;7.00;;;10.70;68.10;;;;;;5052700;28;21030;-73
2020/12/17 04:46:04;;;;;;;10.88;7.70;;;10.70;68.10;;;;;;5051996;28;20398;-72
2020/12/17 04:48:31;;;;;;;15.20;9.05;;;10.70;68.40;;;;;;5034098;28;20405;-73
2020/12/17 04:50:57;;;;;;;13.15;8.40;;;10.70;68.80;;;;;;5015177;28;20499;-74
2020/12/17 04:53:24;;;;;;;9.70;7.60;;;10.70;69.00;;;;;;5034530;28;20477;-73
2020/12/17 04:55:51;;;;;;;18.20;7.82;;;10.70;69.00;;;;;;5052244;28;20684;-73
2020/12/17 04:58:21;;;;;;;11.90;8.30;;;10.60;69.90;;;;;;5052652;28;20381;-74
2020/12/17 05:00:52;;;;;;;12.95;8.40;;;10.60;70.00;;;;;;5052108;28;20798;-73
2020/12/17 05:03:21;;;;;;;11.70;8.15;;;10.70;70.10;;;;;;5052313;28;20823;-72
2020/12/17 05:05:51;;;;;;;12.70;7.95;;;10.70;69.10;;;;;;5052553;28;20416;-72
2020/12/17 05:08:18;;;;;;;15.37;8.60;;;10.70;68.70;;;;;;5051118;28;20775;-74
2020/12/17 05:10:43;;;;;;;10.85;7.93;;;10.70;69.20;;;;;;5051944;28;20385;-74
2020/12/17 05:13:09;;;;;;;10.07;7.90;;;10.80;68.10;;;;;;5051831;28;20397;-73
2020/12/17 05:15:37;;;;;;;12.60;8.13;;;10.70;68.70;;;;;;5051804;28;20397;-72
2020/12/17 05:18:06;;;;;;;10.33;8.20;;;10.70;68.40;;;;;;5051824;28;20385;-73
2020/12/17 05:20:34;;;;;;;12.02;8.77;;;10.70;68.90;;;;;;5052003;28;20947;-72
2020/12/17 05:23:03;;;;;;;9.60;8.40;;;10.70;68.60;;;;;;5050870;28;20417;-72
2020/12/17 05:25:30;;;;;;;11.10;8.57;;;10.70;68.40;;;;;;5036426;28;20398;-73
2020/12/17 05:27:56;;;;;;;14.05;8.82;;;10.70;68.90;;;;;;5036786;28;20383;-73
2020/12/17 05:30:33;;;;;;;11.82;8.77;;;10.70;68.80;;;;;;5043039;28;20455;-73
2020/12/17 05:32:59;;;;;;;11.57;8.25;;;10.70;68.10;;;;;;5056241;28;20440;-75
2020/12/17 05:35:34;;;;;;;10.43;8.00;;;10.70;68.50;;;;;;5056857;28;20449;-74
2020/12/17 05:38:02;;;;;;;12.73;8.40;;;10.70;68.90;;;;;;5055678;28;20401;-72
2020/12/17 05:40:28;;;;;;;11.40;8.50;;;10.70;68.70;;;;;;5056723;28;20383;-74
2020/12/17 05:42:54;;;;;;;10.95;8.30;;;10.80;68.50;;;;;;5055404;28;20377;-74
2020/12/17 05:45:27;;;;;;;12.43;8.38;;;10.90;67.30;;;;;;5054218;28;20500;-74
2020/12/17 05:48:17;;;;;;;10.02;7.68;;;10.90;66.40;;;;;;5051477;28;20443;-73
2020/12/17 05:51:00;;;;;;;12.70;8.60;;;10.90;67.10;;;;;;5052821;28;20866;-74
2020/12/17 05:53:30;;;;;;;11.48;8.32;;;10.90;67.50;;;;;;5052794;28;20464;-75
2020/12/17 05:56:02;;;;;;;14.38;9.23;;;10.80;68.40;;;;;;5052730;28;20439;-73
2020/12/17 05:58:38;;;;;;;14.50;9.25;;;10.80;68.60;;;;;;5034864;28;20397;-74
2020/12/17 06:01:08;;;;;;;13.73;8.70;;;10.80;69.80;;;;;;5045803;28;20382;-75
2020/12/17 06:03:34;;;;;;;17.15;9.10;;;10.90;70.60;;;;;;5059942;28;20439;-76
2020/12/17 06:06:04;;;;;;;14.00;9.50;;;10.90;70.60;;;;;;5052306;28;20409;-72
2020/12/17 06:08:34;;;;;;;14.35;9.65;;;11.00;70.60;;;;;;5050797;28;20412;-72
2020/12/17 06:11:03;;;;;;;13.60;9.30;;;11.00;70.80;;;;;;5031794;28;20489;-72
2020/12/17 06:13:32;;;;;;;15.48;9.05;;;10.90;72.80;;;;;;5031169;28;20407;-72
2020/12/17 06:16:02;;;;;;;13.20;8.80;;;10.80;74.40;;;;;;5031222;28;20376;-74
2020/12/17 06:18:35;;;;;;;12.25;9.43;;;10.90;74.40;;;;;;5039341;28;20396;-73
2020/12/17 06:21:01;;;;;;;12.70;9.65;;;10.90;73.90;;;;;;5043211;28;20484;-73
2020/12/17 06:23:29;;;;;;;13.40;9.55;;;10.80;74.90;;;;;;5037639;28;20832;-73
2020/12/17 06:25:57;;;;;;;14.25;9.70;;;10.80;75.30;;;;;;5030546;28;20423;-74
2020/12/17 06:28:38;;;;;;;11.98;9.02;;;10.90;74.80;;;;;;5030176;28;20406;-74
2020/12/17 06:31:04;;;;;;;15.70;10.00;;;10.80;75.90;;;;;;5031860;28;20394;-72
2020/12/17 06:33:35;;;;;;;14.45;9.90;;;10.80;77.00;;;;;;5049603;28;20512;-73
2020/12/17 06:36:06;;;;;;;15.65;10.00;;;10.80;78.00;;;;;;5038168;28;20469;-73
2020/12/17 06:38:32;;;;;;;12.55;10.07;;;10.80;78.50;;;;;;5049866;28;20473;-73
2020/12/17 06:41:14;;;;;;;15.63;10.77;;;10.70;79.80;;;;;;5050525;28;20685;-73
2020/12/17 06:43:40;;;;;;;16.70;10.20;;;10.70;80.70;;;;;;5050242;28;20483;-73
2020/12/17 06:46:34;;;;;;;16.13;11.40;;;10.60;82.20;;;;;;5049136;28;20453;-74
2020/12/17 06:49:00;;;;;;;15.20;11.10;;;10.60;82.80;;;;;;5030136;28;20443;-74
2020/12/17 06:51:33;;;;;;;14.20;11.55;;;10.60;83.00;;;;;;5012512;28;20849;-74
2020/12/17 06:54:00;;;;;;;21.52;12.40;;;10.70;83.30;;;;;;5034883;28;20417;-74
2020/12/17 06:56:26;;;;;;;17.17;11.25;;;10.70;82.70;;;;;;5050221;28;20479;-73
2020/12/17 06:59:20;;;;;;;16.73;11.02;;;10.70;82.40;;;;;;5049999;28;20485;-73
2020/12/17 07:01:47;;;;;;;15.23;10.77;;;10.70;82.70;;;;;;5050527;28;20377;-73
2020/12/17 07:04:33;;;;;;;14.65;10.15;;;10.80;81.80;;;;;;5050098;28;20388;-77
2020/12/17 07:07:18;;;;;;;12.68;8.45;;;10.80;82.30;;;;;;5048930;28;20389;-74
2020/12/17 07:09:49;;;;;;;15.27;10.05;;;10.80;82.10;;;;;;5049815;28;20795;-74
2020/12/17 07:12:35;;;;;;;15.53;9.73;;;10.80;83.20;;;;;;5050048;28;20400;-73
2020/12/17 07:15:20;;;;;;;15.50;8.20;;;10.70;83.50;;;;;;5034999;28;20416;-74
2020/12/17 07:17:45;;;;;;;11.90;7.72;;;10.70;84.10;;;;;;5048175;28;20782;-75
2020/12/17 07:20:29;;;;;;;8.85;7.32;;;10.80;84.20;;;;;;5052951;28;20381;-74
2020/12/17 07:22:57;;;;;;;12.93;7.05;;;10.80;84.30;;;;;;5026840;28;21002;-74
2020/12/17 07:25:33;;;;;;;8.07;6.30;;;11.00;83.80;;;;;;5040819;28;20485;-73
2020/12/17 07:27:58;;;;;;;14.15;7.25;;;11.00;82.40;;;;;;5041304;28;20404;-72
2020/12/17 07:30:25;;;;;;;10.50;7.23;;;10.90;83.20;;;;;;5047250;28;20402;-72
2020/12/17 07:32:50;;;;;;;13.57;6.60;;;10.90;83.70;;;;;;5050671;28;20763;-71
2020/12/17 07:35:27;;;;;;;10.37;6.80;;;10.80;83.70;;;;;;5050547;28;20492;-71
2020/12/17 07:37:58;;;;;;;8.38;5.10;;;10.80;84.00;;;;;;5051264;28;20416;-72
2020/12/17 07:40:34;;;;;;;10.57;5.30;;;10.80;83.50;;;;;;5052038;28;20393;-74
2020/12/17 07:43:14;;;;;;;8.27;5.55;;;10.80;82.80;;;;;;5048943;28;20473;-74
2020/12/17 07:45:45;;;;;;;5.70;4.60;;;10.80;82.50;;;;;;5051883;28;20512;-74
2020/12/17 07:48:32;;;;;;;9.23;5.28;;;10.80;82.20;;;;;;5052126;28;20409;-73
2020/12/17 07:50:58;;;;;;;6.70;4.40;;;10.70;83.20;;;;;;5053684;28;20393;-73
2020/12/17 07:53:25;;;;;;;10.10;5.40;;;10.70;82.70;;;;;;5048668;28;20401;-72
2020/12/17 07:55:51;;;;;;;10.73;6.30;;;10.70;83.10;;;;;;5048448;28;20401;-71
2020/12/17 07:58:17;;;;;;;7.95;4.90;;;10.70;84.40;;;;;;5048980;28;20394;-72
2020/12/17 08:00:43;;;;;;;11.90;4.90;;;10.70;84.50;;;;;;5052969;28;20393;-73
2020/12/17 08:03:09;;;;;;;13.85;4.70;;;10.80;83.00;;;;;;5053053;28;20490;-73
2020/12/17 08:05:35;;;;;;;6.45;4.70;;;10.70;83.40;;;;;;5051829;28;20859;-72
2020/12/17 08:08:00;;;;;;;7.13;5.17;;;10.70;82.70;;;;;;5052561;28;20405;-72
2020/12/17 08:10:26;;;;;;;9.00;5.60;;;10.70;83.00;;;;;;5052786;28;20496;-73
2020/12/17 08:12:52;;;;;;;8.18;4.70;;;10.70;83.70;;;;;;5049794;28;20504;-73
2020/12/17 08:15:20;;;;;;;48.42;33.92;;;10.70;83.40;;;;;;5050388;28;20389;-72
2020/12/17 08:17:48;;;;;;;8.95;4.68;;;10.70;82.50;;;;;;5033063;28;20412;-72
2020/12/17 08:20:16;;;;;;;8.45;5.55;;;10.70;81.70;;;;;;5052564;28;20897;-74
2020/12/17 08:22:43;;;;;;;5.47;4.85;;;10.70;81.60;;;;;;5052535;28;20416;-73
2020/12/17 08:25:09;;;;;;;18.88;12.20;;;10.70;81.40;;;;;;5052360;28;20389;-72
2020/12/17 08:27:36;;;;;;;5.03;4.53;;;10.70;82.80;;;;;;5051197;28;22475;-73
2020/12/17 08:30:02;;;;;;;10.60;7.23;;;10.70;80.50;;;;;;5034051;28;20449;-73
2020/12/17 08:32:30;;;;;;;7.97;5.28;;;10.70;81.60;;;;;;5052766;28;20475;-73
2020/12/17 08:34:57;;;;;;;16.08;11.05;;;10.80;79.20;;;;;;5052058;28;20770;-73
2020/12/17 08:37:24;;;;;;;8.05;5.60;;;10.80;80.80;;;;;;5052432;28;20388;-73
2020/12/17 08:40:01;;;;;;;3.80;3.40;;;10.80;77.90;;;;;;5052081;28;20891;-73
2020/12/17 08:42:34;;;;;;;24.95;16.63;;;10.80;75.60;;;;;;5051251;28;20538;-73
2020/12/17 08:45:09;;;;;;;13.75;9.98;;;10.70;75.60;;;;;;5044351;28;20409;-72
2020/12/17 08:47:39;;;;;;;19.00;13.50;;;10.80;75.90;;;;;;5051890;28;20491;-74
2020/12/17 08:50:06;;;;;;;8.85;6.07;;;10.80;76.60;;;;;;5052164;28;20401;-72
2020/12/17 08:52:32;;;;;;;12.45;7.07;;;10.80;74.40;;;;;;5050930;28;20406;-72
2020/12/17 08:55:03;;;;;;;3.63;3.33;;;10.80;73.30;;;;;;5051227;28;20814;-72
2020/12/17 08:57:29;;;;;;;7.70;5.50;;;10.80;71.00;;;;;;5051516;28;20874;-72
2020/12/17 08:59:55;;;;;;;6.07;5.07;;;10.90;71.40;;;;;;5052460;28;20444;-73
2020/12/17 09:02:27;;;;;;;23.70;14.93;;;10.80;70.90;;;;;;5052069;28;20957;-72
2020/12/17 09:04:58;;;;;;;6.35;4.30;;;10.80;71.70;;;;;;5052998;28;20480;-74
2020/12/17 09:07:28;;;;;;;13.52;8.50;;;11.00;70.20;;;;;;5052785;28;20409;-75
2020/12/17 09:10:06;;;;;;;5.63;4.60;;;11.00;68.50;;;;;;5054050;28;20508;-75
2020/12/17 09:12:31;;;;;;;8.75;5.40;;;11.00;66.80;;;;;;5055879;28;20411;-74
2020/12/17 09:15:07;;;;;;;7.77;5.10;;;11.00;66.70;;;;;;5051907;28;20925;-75
2020/12/17 09:17:32;;;;;;;6.30;5.43;;;11.10;64.90;;;;;;5031974;28;20902;-74
2020/12/17 09:19:58;;;;;;;21.57;14.63;;;11.20;64.10;;;;;;5051682;28;20393;-74
2020/12/17 09:22:36;;;;;;;5.13;3.50;;;11.30;64.90;;;;;;5047360;28;20884;-75
2020/12/17 09:25:03;;;;;;;4.65;3.58;;;11.30;64.60;;;;;;5032031;28;20406;-73
2020/12/17 09:27:33;;;;;;;6.63;3.30;;;11.40;63.80;;;;;;5053588;28;20405;-74
2020/12/17 09:29:59;;;;;;;5.07;3.10;;;11.40;64.50;;;;;;5038813;28;20402;-75
2020/12/17 09:32:25;;;;;;;5.15;3.40;;;11.40;62.80;;;;;;5052643;28;20401;-75
2020/12/17 09:35:02;;;;;;;4.53;3.10;;;11.30;63.50;;;;;;5056304;28;20427;-76
2020/12/17 09:37:28;;;;;;;5.53;3.40;;;11.30;63.40;;;;;;5056245;28;20843;-76
2020/12/17 09:39:53;;;;;;;4.03;3.63;;;11.30;62.00;;;;;;5058243;28;20581;-76
2020/12/17 09:42:19;;;;;;;5.43;4.00;;;11.30;62.40;;;;;;5037906;28;20395;-74
2020/12/17 09:44:44;;;;;;;4.67;3.87;;;11.50;60.90;;;;;;5055797;28;20425;-73
2020/12/17 09:47:10;;;;;;;4.45;3.30;;;11.40;61.10;;;;;;5037795;28;20409;-73
2020/12/17 09:49:38;;;;;;;4.22;3.38;;;11.40;60.60;;;;;;5054538;28;20405;-75
2020/12/17 09:52:07;;;;;;;4.90;3.50;;;11.40;60.70;;;;;;5053592;28;20411;-74
2020/12/17 09:54:37;;;;;;;5.30;3.20;;;11.50;59.70;;;;;;5050996;28;20405;-74
2020/12/17 09:57:05;;;;;;;4.47;3.10;;;11.60;59.10;;;;;;5050691;28;20917;-75
2020/12/17 09:59:31;;;;;;;5.03;3.60;;;11.70;56.90;;;;;;5049805;28;20429;-75
2020/12/17 10:01:58;;;;;;;3.37;2.50;;;12.00;56.20;;;;;;5051115;28;20413;-73
2020/12/17 10:04:23;;;;;;;3.73;2.40;;;12.10;53.20;;;;;;5049887;28;20397;-71
2020/12/17 10:06:49;;;;;;;3.87;2.90;;;12.00;53.50;;;;;;5050607;28;20435;-70
2020/12/17 10:09:14;;;;;;;3.10;2.47;;;11.80;55.00;;;;;;5049927;28;20401;-70
2020/12/17 10:11:46;;;;;;;2.87;2.07;;;11.80;55.00;;;;;;5050098;28;20390;-70
2020/12/17 10:14:11;;;;;;;4.20;2.17;;;11.80;54.50;;;;;;5050926;28;20413;-71
2020/12/17 10:16:37;;;;;;;3.80;2.20;;;11.80;54.40;;;;;;5050742;28;20751;-71
2020/12/17 10:19:02;;;;;;;2.20;1.90;;;11.80;54.20;;;;;;5049389;28;20405;-71
2020/12/17 10:21:28;;;;;;;4.25;2.67;;;11.80;53.80;;;;;;5032141;28;20401;-72
2020/12/17 10:23:53;;;;;;;2.50;2.30;;;11.80;54.00;;;;;;5050769;28;20397;-71
2020/12/17 10:26:19;;;;;;;5.10;2.63;;;11.70;53.70;;;;;;5032010;28;20410;-72
2020/12/17 10:28:44;;;;;;;3.70;2.30;;;11.70;54.60;;;;;;5048915;28;20411;-73
2020/12/17 10:31:12;;;;;;;4.80;2.50;;;11.70;54.60;;;;;;5050418;28;20544;-73
2020/12/17 10:33:37;;;;;;;2.30;2.10;;;11.70;54.30;;;;;;5049912;28;20455;-72
2020/12/17 10:36:03;;;;;;;3.00;2.33;;;11.80;53.60;;;;;;5049933;28;20433;-71
2020/12/17 10:38:28;;;;;;;2.50;2.30;;;12.00;53.70;;;;;;5049364;28;20413;-71
2020/12/17 10:40:54;;;;;;;4.13;2.77;;;12.00;53.10;;;;;;5050101;28;20383;-70
2020/12/17 10:43:19;;;;;;;6.45;2.45;;;12.00;50.90;;;;;;5049412;28;20401;-73
2020/12/17 10:45:45;;;;;;;3.47;2.50;;;12.00;51.80;;;;;;5050002;28;20382;-71
2020/12/17 10:48:10;;;;;;;4.00;2.30;;;12.00;50.90;;;;;;5049078;28;20412;-73
2020/12/17 10:50:36;;;;;;;3.70;2.20;;;12.10;51.60;;;;;;5050177;28;20389;-72
2020/12/17 10:53:01;;;;;;;3.13;2.30;;;12.10;50.30;;;;;;5054783;28;20385;-75
2020/12/17 10:55:27;;;;;;;5.88;2.60;;;12.20;50.60;;;;;;5056648;28;20401;-72
2020/12/17 10:57:52;;;;;;;6.43;2.70;;;12.30;50.30;;;;;;5049849;28;20886;-71
2020/12/17 11:00:18;;;;;;;5.95;2.40;;;12.50;48.90;;;;;;5049649;28;20390;-72
2020/12/17 11:02:43;;;;;;;6.40;1.93;;;12.70;48.20;;;;;;5049638;28;20394;-72
2020/12/17 11:05:09;;;;;;;8.00;2.70;;;12.90;45.90;;;;;;5055010;28;20450;-72
2020/12/17 11:07:35;;;;;;;6.20;2.33;;;12.80;47.00;;;;;;5048204;28;20492;-72
2020/12/17 11:10:00;;;;;;;5.63;2.65;;;12.90;45.70;;;;;;5049782;28;20459;-71
2020/12/17 11:12:26;;;;;;;5.90;2.37;;;13.00;45.00;;;;;;5050275;28;20448;-72
2020/12/17 11:14:51;;;;;;;6.60;2.20;;;13.10;44.40;;;;;;5048384;28;20970;-72
2020/12/17 11:17:17;;;;;;;3.20;2.00;;;13.00;44.50;;;;;;5046268;28;20906;-71
2020/12/17 11:19:43;;;;;;;9.73;2.70;;;13.20;43.70;;;;;;5047436;28;20773;-72
2020/12/17 11:22:08;;;;;;;4.93;2.10;;;13.10;44.80;;;;;;5048055;28;20512;-72
2020/12/17 11:24:34;;;;;;;4.18;2.10;;;13.00;43.60;;;;;;5041698;28;20424;-72
2020/12/17 11:26:59;;;;;;;3.88;2.45;;;12.90;44.60;;;;;;5048818;28;20774;-71
2020/12/17 11:29:25;;;;;;;6.50;2.40;;;12.90;44.50;;;;;;5048996;28;20794;-73
2020/12/17 11:31:50;;;;;;;6.47;2.20;;;12.80;44.90;;;;;;5049360;28;20504;-73
2020/12/17 11:34:16;;;;;;;6.60;2.30;;;12.80;43.70;;;;;;5035052;28;20895;-73
2020/12/17 11:36:45;;;;;;;8.00;2.90;;;12.70;44.90;;;;;;5053348;28;20435;-73
2020/12/17 11:39:12;;;;;;;4.90;2.58;;;12.60;45.40;;;;;;5052776;28;20397;-72
2020/12/17 11:41:38;;;;;;;5.38;2.10;;;12.50;46.60;;;;;;5053793;28;21440;-72
2020/12/17 11:44:03;;;;;;;7.03;2.50;;;12.50;46.00;;;;;;5052897;28;20409;-71
2020/12/17 11:46:29;;;;;;;6.53;2.22;;;12.60;46.60;;;;;;5053032;28;20624;-72
2020/12/17 11:48:55;;;;;;;3.03;2.30;;;12.60;43.50;;;;;;5057904;28;20462;-71
2020/12/17 11:51:20;;;;;;;4.10;2.40;;;12.60;44.40;;;;;;5061523;28;20412;-74
2020/12/17 11:53:46;;;;;;;4.65;2.50;;;12.70;44.90;;;;;;5060117;28;20405;-75
2020/12/17 11:56:13;;;;;;;4.00;2.50;;;12.60;43.90;;;;;;5061443;28;20429;-72
2020/12/17 11:58:39;;;;;;;8.00;2.50;;;12.70;44.40;;;;;;5061936;28;20397;-71
2020/12/17 12:01:06;;;;;;;6.43;2.55;;;12.70;43.10;;;;;;5061424;28;20443;-72
2020/12/17 12:03:31;;;;;;;3.13;2.30;;;12.70;42.70;;;;;;5056749;28;20482;-72
2020/12/17 12:05:57;;;;;;;9.03;2.50;;;12.70;42.50;;;;;;5057238;28;20897;-73
2020/12/17 12:08:22;;;;;;;3.53;2.47;;;12.70;43.00;;;;;;5056054;28;20401;-72
2020/12/17 12:10:50;;;;;;;6.77;3.30;;;12.80;41.40;;;;;;5058446;28;20395;-74
2020/12/17 12:13:15;;;;;;;5.93;4.32;;;12.70;42.80;;;;;;5057441;28;20405;-73
2020/12/17 12:15:41;;;;;;;6.23;3.07;;;12.80;43.50;;;;;;5056829;28;20408;-73
2020/12/17 12:18:06;;;;;;;5.80;3.00;;;12.70;43.20;;;;;;5056640;28;20400;-73
2020/12/17 12:20:32;;;;;;;6.27;3.00;;;12.80;43.40;;;;;;5057287;28;20386;-73
2020/12/17 12:22:59;;;;;;;5.27;2.30;;;12.80;41.90;;;;;;5054579;28;20740;-73
2020/12/17 12:25:25;;;;;;;7.20;2.50;;;12.70;41.90;;;;;;5056373;28;20401;-73
2020/12/17 12:27:51;;;;;;;5.60;2.40;;;12.80;42.50;;;;;;5055574;28;20480;-74
2020/12/17 12:30:16;;;;;;;8.10;2.88;;;12.80;42.10;;;;;;5057085;28;20588;-73
2020/12/17 12:32:42;;;;;;;9.10;2.70;;;12.70;42.00;;;;;;5056944;28;20422;-72
2020/12/17 12:35:08;;;;;;;6.88;2.40;;;12.70;41.40;;;;;;5056075;28;20409;-74
2020/12/17 12:37:33;;;;;;;9.20;2.80;;;12.70;40.80;;;;;;5055845;28;20402;-73
2020/12/17 12:39:59;;;;;;;6.22;2.60;;;12.70;40.60;;;;;;5054640;28;20405;-73
2020/12/17 12:42:26;;;;;;;3.88;2.28;;;12.80;39.50;;;;;;5055980;28;20396;-73